EW0486 Weather Reports


Display with metric or nautical units.
time (UTC)temp
F
wind
direction
speed
MPH
gust
MPH
rain 1hr
in
rain 24hr
in
rain mn
in
humidity
%
barometer
mb
20200401043046 42 170 0.0 1.0 0.00 0.00 0.00 72 1015.1
20200401041527 42 170 0.0 6.0 0.00 0.00 0.00 72 1015.0
20200401040041 42 123 0.0 5.0 0.00 0.00 0.00 71 1015.2
20200401033044 43 122 0.0 2.0 0.00 0.00 0.00 69 1015.2
20200401031551 43 113 0.0 3.0 0.00 0.00 0.00 69 1015.2
20200401030110 44 113 0.0 1.0 0.00 0.00 0.00 69 1015.1
20200401023135 45 113 0.0 1.0 0.00 0.00 0.00 69 1015.1
20200401020144 45 113 0.0 7.0 0.00 0.00 0.00 72 1014.9
20200401013041 45 144 0.0 0.0 0.00 0.00 0.00 72 1014.5
20200401011528 46 144 0.0 0.0 0.00 0.00 0.00 68 1014.4
20200401010042 47 144 0.0 0.0 0.00 0.00 0.00 66 1014.4
20200401003032 49 144 0.0 1.0 0.00 0.00 0.00 58 1014.2
20200401001547 50 144 0.0 1.0 0.00 0.00 0.00 56 1014.2
20200401000040 51 144 0.0 0.0 0.00 0.00 0.00 53 1014.1
20200331233113 52 144 0.0 1.0 0.00 0.00 0.00 52 1014.3
20200331231532 52 144 0.0 0.0 0.00 0.00 0.00 50 1014.2
20200331230041 53 144 0.0 2.0 0.00 0.00 0.00 49 1014.1
20200331223121 53 144 0.0 3.0 0.00 0.00 0.00 49 1014.3
20200331221553 53 144 0.0 3.0 0.00 0.00 0.00 48 1014.3
20200331220046 53 22 0.0 3.0 0.00 0.00 0.00 49 1014.4
20200331213053 53 69 1.0 4.0 0.00 0.00 0.00 48 1014.5
20200331211548 54 82 0.0 2.0 0.00 0.00 0.00 48 1014.6
20200331210035 54 82 1.0 4.0 0.00 0.00 0.00 48 1014.6
20200331203032 54 173 1.0 2.0 0.00 0.00 0.00 48 1014.9
20200331201528 54 173 1.0 3.0 0.00 0.00 0.00 48 1015.2
20200331200011 52 19 1.0 3.0 0.00 0.00 0.00 51 1015.2
20200331193034 52 44 1.0 4.0 0.00 0.00 0.00 50 1015.6
20200331191508 52 71 1.0 3.0 0.00 0.00 0.00 50 1015.7
20200331190002 51 320 0.0 4.0 0.00 0.00 0.00 53 1015.9
20200331184722 50 65 1.0 5.0 0.00 0.00 0.00 53 1016.1
20200331181652 49 5 2.0 4.0 0.00 0.00 0.00 54 1016.3
20200331180202 49 22 2.0 5.0 0.00 0.00 0.00 56 1016.5
20200331174553 49 61 1.0 5.0 0.00 0.00 0.00 57 1016.6
20200331173118 48 61 3.0 6.0 0.00 0.00 0.00 56 1016.6
20200331171635 48 47 3.0 7.0 0.00 0.00 0.00 57 1016.9
20200331170055 48 33 3.0 8.0 0.00 0.00 0.00 58 1017.0
20200331164634 47 48 3.0 5.0 0.00 0.00 0.00 59 1017.0
20200331163112 47 43 3.0 6.0 0.00 0.00 0.00 60 1017.1
20200331161552 45 34 2.0 5.0 0.00 0.00 0.00 59 1017.5
20200331160149 45 56 3.0 6.0 0.00 0.00 0.00 58 1017.7
20200331154631 45 52 1.0 4.0 0.00 0.00 0.00 59 1017.9
20200331153109 44 43 0.0 4.0 0.00 0.00 0.00 61 1017.9
20200331151544 43 39 0.0 2.0 0.00 0.00 0.00 61 1018.2
20200331150051 42 57 0.0 1.0 0.00 0.00 0.00 64 1018.2
20200331144614 41 42 0.0 4.0 0.00 0.00 0.00 66 1018.5
20200331143114 41 31 0.0 4.0 0.00 0.00 0.00 66 1018.4
20200331141552 40 56 0.0 2.0 0.00 0.00 0.00 66 1018.5
20200331140045 40 57 0.0 5.0 0.00 0.00 0.00 68 1018.5
20200331134538 39 63 3.0 9.0 0.00 0.00 0.00 68 1018.7
20200331133041 39 65 3.0 6.0 0.00 0.00 0.00 70 1018.8
20200331131548 38 50 0.0 5.0 0.00 0.00 0.00 71 1018.8
20200331130043 38 39 0.0 0.0 0.00 0.00 0.00 72 1018.9
20200331124543 35 49 0.0 0.0 0.00 0.00 0.00 80 1018.7
20200331123031 34 92 0.0 0.0 0.00 0.00 0.00 83 1018.7
20200331121538 32 92 0.0 0.0 0.00 0.00 0.00 85 1018.8
20200331120038 33 92 0.0 1.0 0.00 0.00 0.00 84 1018.8
20200331114602 33 92 0.0 0.0 0.00 0.00 0.00 84 1019.0
20200331113033 34 92 0.0 0.0 0.00 0.00 0.00 83 1019.1
20200331111550 35 92 0.0 0.0 0.00 0.00 0.00 82 1019.1
20200331110024 35 92 0.0 0.0 0.00 0.00 0.00 78 1019.2
20200331104540 36 92 0.0 0.0 0.00 0.00 0.00 78 1019.2
20200331103052 36 95 0.0 0.0 0.00 0.00 0.00 77 1019.2
20200331101522 36 95 0.0 0.0 0.00 0.00 0.00 77 1019.1
20200331100021 36 95 0.0 0.0 0.00 0.00 0.00 77 1019.1
20200331094532 37 95 0.0 0.0 0.00 0.00 0.00 76 1019.1
20200331093017 37 38 0.0 0.0 0.00 0.00 0.00 76 1019.0
20200331091529 37 37 0.0 0.0 0.00 0.00 0.00 77 1019.1
20200331090025 37 37 0.0 2.0 0.00 0.00 0.00 77 1019.1
20200331084519 38 37 0.0 0.0 0.00 0.00 0.00 76 1019.4
20200331083017 38 37 0.0 0.0 0.00 0.00 0.00 75 1019.4
20200331081600 38 37 0.0 0.0 0.00 0.00 0.00 75 1019.6
20200331080028 39 37 0.0 0.0 0.00 0.00 0.00 74 1019.7
20200331074529 40 37 0.0 3.0 0.00 0.00 0.00 71 1019.8
20200331073013 40 56 0.0 0.0 0.00 0.00 0.00 71 1019.8
20200331071524 40 56 0.0 0.0 0.00 0.00 0.00 71 1019.9
20200331070012 40 56 0.0 0.0 0.00 0.00 0.00 69 1020.0
20200331064507 42 56 0.0 0.0 0.00 0.00 0.00 67 1020.0
20200331063004 42 56 0.0 0.0 0.00 0.00 0.00 66 1020.0
20200331061502 42 31 0.0 0.0 0.00 0.00 0.00 66 1020.0
20200331060128 43 30 0.0 0.0 0.00 0.00 0.00 64 1020.1
20200331054640 43 103 0.0 0.0 0.00 0.00 0.00 64 1020.0
20200331053120 43 103 0.0 0.0 0.00 0.00 0.00 63 1020.1
20200331051619 44 75 0.0 0.0 0.00 0.00 0.00 63 1020.1
20200331050101 44 75 0.0 0.0 0.00 0.00 0.00 62 1020.1